createdAt,value
2022-10-24T00:00:00.955Z,79.70
2022-10-24T00:02:30.165Z,79.80
2022-10-24T00:05:00.699Z,79.70
2022-10-24T00:07:30.136Z,79.70
2022-10-24T00:09:59.233Z,79.60
2022-10-24T00:12:28.322Z,79.70
2022-10-24T00:14:57.503Z,79.80
2022-10-24T00:17:26.596Z,79.90
2022-10-24T00:19:55.870Z,79.90
2022-10-24T00:22:26.531Z,80.00
2022-10-24T00:24:55.952Z,79.90
2022-10-24T00:27:25.302Z,79.90
2022-10-24T00:29:54.461Z,79.90
2022-10-24T00:32:23.569Z,80.00
2022-10-24T00:34:52.750Z,80.00
2022-10-24T00:37:21.922Z,79.90
2022-10-24T00:39:52.498Z,80.00
2022-10-24T00:42:21.709Z,80.00
2022-10-24T00:44:53.527Z,80.00
2022-10-24T00:47:26.233Z,80.00
2022-10-24T00:50:01.086Z,80.00
2022-10-24T00:52:33.415Z,80.10
2022-10-24T00:55:06.496Z,80.10
2022-10-24T00:57:40.109Z,80.10
2022-10-24T01:00:13.662Z,80.10
2022-10-24T01:02:43.512Z,80.00
2022-10-24T01:05:14.049Z,79.90
2022-10-24T01:07:53.386Z,80.00
2022-10-24T01:10:38.083Z,80.20
2022-10-24T01:13:16.952Z,80.20
2022-10-24T01:15:52.449Z,80.00
2022-10-24T01:18:27.876Z,80.00
2022-10-24T01:21:10.542Z,80.00
2022-10-24T01:24:16.175Z,80.10
2022-10-24T01:27:08.737Z,80.10
2022-10-24T01:29:50.913Z,80.30
2022-10-24T01:32:32.945Z,80.30
2022-10-24T01:35:09.459Z,80.40
2022-10-24T01:37:43.689Z,80.40
2022-10-24T01:40:17.784Z,80.40
2022-10-24T01:42:48.472Z,80.40
2022-10-24T01:45:26.795Z,80.30
2022-10-24T01:47:59.659Z,80.20
2022-10-24T01:50:30.171Z,80.10
2022-10-24T01:53:00.346Z,80.20
2022-10-24T01:55:31.556Z,80.00
2022-10-24T01:58:00.895Z,80.00
2022-10-24T02:00:31.730Z,80.00
2022-10-24T02:03:05.632Z,80.00
2022-10-24T02:05:39.350Z,80.10
2022-10-24T02:08:11.704Z,80.10
2022-10-24T02:10:46.379Z,80.10
2022-10-24T02:13:20.362Z,80.20
2022-10-24T02:15:56.648Z,80.30
2022-10-24T02:18:26.168Z,80.20
2022-10-24T02:20:59.903Z,80.30
2022-10-24T02:23:35.515Z,80.20
2022-10-24T02:26:09.428Z,80.40
2022-10-24T02:28:43.605Z,80.40
2022-10-24T02:31:18.506Z,80.30
2022-10-24T02:33:49.939Z,80.40
2022-10-24T02:36:24.337Z,80.40
2022-10-24T02:38:55.825Z,80.30
2022-10-24T02:41:30.057Z,80.30
2022-10-24T02:44:01.841Z,80.30
2022-10-24T02:46:33.541Z,80.40
2022-10-24T02:49:04.700Z,80.30
2022-10-24T02:51:36.683Z,80.30
2022-10-24T02:54:06.539Z,80.20
2022-10-24T02:56:38.469Z,80.30
2022-10-24T03:01:43.301Z,80.30
2022-10-24T03:04:13.015Z,80.20
2022-10-24T03:06:42.277Z,80.30
2022-10-24T03:09:11.485Z,80.40
2022-10-24T03:11:40.711Z,80.30
2022-10-24T03:14:09.947Z,80.40
2022-10-24T03:16:39.015Z,80.50
2022-10-24T03:19:09.585Z,80.30
2022-10-24T03:21:38.712Z,80.40
2022-10-24T03:26:42.454Z,80.40
2022-10-24T03:29:14.232Z,80.40
2022-10-24T03:31:43.345Z,80.40
2022-10-24T03:34:14.211Z,80.40
2022-10-24T03:36:43.317Z,80.40
2022-10-24T03:39:12.418Z,80.40
2022-10-24T03:41:41.500Z,80.30
2022-10-24T03:44:10.811Z,80.30
2022-10-24T03:46:39.897Z,80.30
2022-10-24T03:49:09.092Z,80.30
2022-10-24T03:51:39.650Z,80.30
2022-10-24T03:54:08.889Z,81.00
2022-10-24T03:56:38.114Z,80.20
2022-10-24T03:59:07.195Z,80.20
2022-10-24T04:01:36.572Z,80.20
2022-10-24T04:04:06.028Z,80.30
2022-10-24T04:06:36.524Z,80.30
2022-10-24T04:09:07.454Z,79.90
2022-10-24T04:11:36.612Z,80.10
2022-10-24T04:14:05.924Z,80.10
2022-10-24T04:16:35.111Z,80.20
2022-10-24T04:19:05.212Z,80.00
2022-10-24T04:21:34.382Z,80.00
2022-10-24T04:24:03.948Z,80.00
2022-10-24T04:26:34.745Z,80.10
2022-10-24T04:29:03.930Z,80.10
2022-10-24T04:31:33.091Z,80.10
2022-10-24T04:34:02.364Z,80.20
2022-10-24T04:36:31.544Z,80.40
2022-10-24T04:41:36.197Z,80.30
2022-10-24T04:44:05.756Z,80.70
2022-10-24T04:46:35.237Z,80.90
2022-10-24T04:49:04.744Z,80.40
2022-10-24T04:51:34.014Z,80.40
2022-10-24T04:54:03.217Z,80.40
2022-10-24T04:56:32.358Z,80.40
2022-10-24T04:59:02.935Z,80.40
2022-10-24T05:01:32.179Z,80.40
2022-10-24T05:06:35.623Z,80.40
2022-10-24T05:09:04.915Z,80.90
2022-10-24T05:11:34.436Z,81.10
2022-10-24T05:14:05.136Z,81.10
2022-10-24T05:16:34.614Z,81.00
2022-10-24T05:19:03.734Z,81.10
2022-10-24T05:21:33.239Z,81.60
2022-10-24T05:24:02.445Z,81.60
2022-10-24T05:26:31.668Z,81.60
2022-10-24T05:29:00.986Z,81.80
2022-10-24T05:34:05.583Z,82.10
2022-10-24T05:36:34.731Z,82.20
2022-10-24T05:39:03.879Z,82.30
2022-10-24T05:41:33.047Z,82.10
2022-10-24T05:44:02.239Z,82.20
2022-10-24T05:46:32.851Z,82.10
2022-10-24T05:49:01.966Z,82.20
2022-10-24T05:51:31.145Z,82.10
2022-10-24T05:54:02.073Z,82.10
2022-10-24T05:56:31.405Z,82.10
2022-10-24T05:59:00.818Z,82.80
2022-10-24T06:01:29.999Z,82.10
2022-10-24T06:04:00.720Z,81.80
2022-10-24T06:06:29.987Z,82.10
2022-10-24T06:08:59.489Z,82.30
2022-10-24T06:11:28.594Z,82.20
2022-10-24T06:13:57.837Z,82.40
2022-10-24T06:16:27.804Z,83.10
2022-10-24T06:18:57.243Z,83.10
2022-10-24T06:21:27.877Z,82.90
2022-10-24T06:23:57.066Z,83.00
2022-10-24T06:26:26.589Z,82.80
2022-10-24T06:28:56.438Z,82.90
2022-10-24T06:31:26.771Z,82.80
2022-10-24T06:33:56.260Z,82.90
2022-10-24T06:36:26.961Z,82.80
2022-10-24T06:39:00.104Z,82.80
2022-10-24T06:41:29.226Z,82.70
2022-10-24T06:43:58.682Z,82.70
2022-10-24T06:46:27.790Z,82.50
2022-10-24T06:48:57.862Z,82.40
2022-10-24T06:51:27.325Z,82.50
2022-10-24T06:53:56.631Z,82.40
2022-10-24T06:56:27.410Z,82.50
2022-10-24T06:58:56.555Z,82.40
2022-10-24T07:01:27.423Z,82.30
2022-10-24T07:03:56.789Z,82.30
2022-10-24T07:06:28.193Z,82.30
2022-10-24T07:08:59.236Z,82.40
2022-10-24T07:11:30.173Z,82.40
2022-10-24T07:14:00.932Z,82.50
2022-10-24T07:16:31.409Z,82.50
2022-10-24T07:19:00.521Z,82.50
2022-10-24T07:21:31.615Z,82.40
2022-10-24T07:24:02.137Z,82.30
2022-10-24T07:26:33.016Z,82.40
2022-10-24T07:31:38.122Z,82.20
2022-10-24T07:34:09.676Z,82.20
2022-10-24T07:36:41.433Z,82.20
2022-10-24T07:39:13.676Z,82.20
2022-10-24T07:41:44.381Z,82.20
2022-10-24T07:44:13.665Z,82.10
2022-10-24T07:46:43.409Z,82.20
2022-10-24T07:49:12.585Z,82.20
2022-10-24T07:51:42.774Z,82.10
2022-10-24T07:54:12.077Z,82.10
2022-10-24T07:56:41.388Z,82.10
2022-10-24T07:59:29.797Z,82.20
2022-10-24T08:02:01.182Z,82.00
2022-10-24T08:04:30.564Z,82.00
2022-10-24T08:07:00.556Z,82.00
2022-10-24T08:09:29.642Z,82.00
2022-10-24T08:11:58.715Z,81.90
2022-10-24T08:14:29.300Z,81.90
2022-10-24T08:16:58.413Z,81.80
2022-10-24T08:19:27.555Z,81.90
2022-10-24T08:21:56.677Z,81.90
2022-10-24T08:24:25.820Z,81.90
2022-10-24T08:26:56.628Z,81.90
2022-10-24T08:29:25.926Z,82.00
2022-10-24T08:31:58.767Z,82.10
2022-10-24T08:34:27.949Z,81.90
2022-10-24T08:36:57.202Z,81.90
2022-10-24T08:39:27.319Z,82.00
2022-10-24T08:42:00.308Z,81.90
2022-10-24T08:44:32.533Z,82.00
2022-10-24T08:47:10.083Z,82.00
2022-10-24T08:49:49.499Z,82.10
2022-10-24T08:52:29.156Z,82.10
2022-10-24T08:55:06.280Z,82.20
2022-10-24T08:57:36.854Z,82.20
2022-10-24T09:00:24.032Z,82.10
2022-10-24T09:03:02.710Z,82.00
2022-10-24T09:05:37.717Z,82.10
2022-10-24T09:08:21.725Z,82.10
2022-10-24T09:10:58.577Z,81.90
2022-10-24T09:13:29.739Z,81.80
2022-10-24T09:15:59.309Z,81.90
2022-10-24T09:18:34.581Z,81.90
2022-10-24T09:21:04.729Z,82.00
2022-10-24T09:23:35.265Z,82.00
2022-10-24T09:26:06.928Z,81.90
2022-10-24T09:28:40.541Z,81.80
2022-10-24T09:31:17.566Z,81.80
2022-10-24T09:33:50.533Z,81.90
2022-10-24T09:36:21.641Z,81.80
2022-10-24T09:38:50.830Z,81.70
2022-10-24T09:41:24.801Z,81.70
2022-10-24T09:43:56.457Z,81.90
2022-10-24T09:46:28.323Z,81.80
2022-10-24T09:49:00.739Z,81.90
2022-10-24T09:51:34.779Z,81.90
2022-10-24T09:54:27.750Z,82.00
2022-10-24T09:56:58.985Z,82.10
2022-10-24T09:59:41.663Z,81.90
2022-10-24T10:02:25.775Z,82.00
2022-10-24T10:05:21.683Z,82.00
2022-10-24T10:07:52.313Z,82.10
2022-10-24T10:10:35.374Z,82.20
2022-10-24T10:13:12.254Z,82.20
2022-10-24T10:15:47.459Z,82.40
2022-10-24T10:18:32.811Z,82.20
2022-10-24T10:21:09.514Z,82.00
2022-10-24T10:23:41.920Z,82.00
2022-10-24T10:26:29.736Z,82.00
2022-10-24T10:29:04.652Z,82.10
2022-10-24T10:31:40.828Z,82.00
2022-10-24T10:34:32.471Z,82.10
2022-10-24T10:37:32.280Z,82.10
2022-10-24T10:40:23.576Z,82.10
2022-10-24T10:43:18.568Z,82.20
2022-10-24T10:45:48.991Z,82.40
2022-10-24T10:48:36.905Z,82.40
2022-10-24T10:51:15.032Z,82.50
2022-10-24T10:53:53.964Z,82.40
2022-10-24T10:56:35.999Z,82.40
2022-10-24T10:59:16.270Z,82.40
2022-10-24T11:01:57.333Z,82.30
2022-10-24T11:04:34.806Z,82.30
2022-10-24T11:07:10.129Z,82.30
2022-10-24T11:09:44.752Z,82.30
2022-10-24T11:12:18.884Z,82.20
2022-10-24T11:14:52.979Z,82.30
2022-10-24T11:17:26.189Z,82.30
2022-10-24T11:20:02.821Z,82.20
2022-10-24T11:22:39.665Z,82.20
2022-10-24T11:25:22.162Z,82.20
2022-10-24T11:28:00.273Z,82.20
2022-10-24T11:30:44.523Z,82.30
2022-10-24T11:33:20.699Z,82.30
2022-10-24T11:36:09.481Z,82.30
2022-10-24T11:38:45.280Z,82.30
2022-10-24T11:41:32.409Z,82.30
2022-10-24T11:44:08.019Z,82.30
2022-10-24T11:46:43.657Z,82.30
2022-10-24T11:49:21.511Z,82.30
2022-10-24T11:51:56.989Z,82.30
2022-10-24T11:54:31.669Z,82.30
2022-10-24T11:57:05.729Z,82.20
2022-10-24T11:59:38.472Z,82.10
2022-10-24T12:02:41.168Z,82.10
2022-10-24T12:05:23.889Z,82.10
2022-10-24T12:08:22.717Z,82.20
2022-10-24T12:11:07.323Z,82.20
2022-10-24T12:13:51.194Z,82.20
2022-10-24T12:16:33.309Z,82.20
2022-10-24T12:19:05.656Z,82.30
2022-10-24T12:21:39.736Z,82.30
2022-10-24T12:24:22.958Z,82.20
2022-10-24T12:27:03.238Z,82.20
2022-10-24T12:29:36.494Z,82.20
2022-10-24T12:32:24.659Z,82.20
2022-10-24T12:37:50.585Z,82.20
2022-10-24T12:40:52.242Z,82.10
2022-10-24T12:43:34.454Z,82.20
2022-10-24T12:46:57.616Z,82.10
2022-10-24T12:49:31.031Z,82.10
2022-10-24T12:52:01.156Z,82.20
2022-10-24T12:54:43.661Z,82.10
2022-10-24T12:57:27.400Z,81.90
2022-10-24T12:59:59.195Z,81.90
2022-10-24T13:02:52.077Z,82.00
2022-10-24T13:05:46.407Z,82.00
2022-10-24T13:08:30.669Z,81.90
2022-10-24T13:11:11.367Z,82.10
2022-10-24T13:14:12.767Z,82.10
2022-10-24T13:16:53.388Z,81.90
2022-10-24T13:19:23.970Z,81.90
2022-10-24T13:21:55.599Z,82.00
2022-10-24T13:24:34.122Z,82.00
2022-10-24T13:27:28.323Z,82.00
2022-10-24T13:30:16.313Z,81.90
2022-10-24T13:32:45.634Z,82.00
2022-10-24T13:35:22.769Z,82.20
2022-10-24T13:37:59.160Z,82.20
2022-10-24T13:40:31.838Z,82.10
2022-10-24T13:43:06.833Z,82.00
2022-10-24T13:45:46.228Z,81.90
2022-10-24T13:48:19.970Z,82.00
2022-10-24T13:50:57.906Z,82.10
2022-10-24T13:53:31.493Z,82.00
2022-10-24T13:56:07.997Z,82.00
2022-10-24T13:58:44.321Z,82.10
2022-10-24T14:01:21.361Z,82.00
2022-10-24T14:03:51.267Z,82.00
2022-10-24T14:06:27.409Z,82.10
2022-10-24T14:09:05.841Z,82.10
2022-10-24T14:11:40.733Z,82.10
2022-10-24T14:14:23.691Z,82.10
2022-10-24T14:17:07.570Z,82.10
2022-10-24T14:19:44.355Z,82.20
2022-10-24T14:22:22.414Z,82.20
2022-10-24T14:24:51.813Z,82.20
2022-10-24T14:27:21.728Z,82.10
2022-10-24T14:30:01.497Z,82.20
2022-10-24T14:32:32.657Z,82.10
2022-10-24T14:35:03.104Z,82.20
2022-10-24T14:37:38.410Z,82.30
2022-10-24T14:40:16.729Z,82.30
2022-10-24T14:42:47.628Z,82.30
2022-10-24T14:45:27.904Z,82.40
2022-10-24T14:47:59.178Z,82.40
2022-10-24T14:50:41.088Z,82.40
2022-10-24T14:53:25.105Z,82.40
2022-10-24T14:55:55.610Z,82.60
2022-10-24T14:58:27.073Z,82.60
2022-10-24T15:00:57.185Z,82.70
2022-10-24T15:03:27.617Z,82.60
2022-10-24T15:05:59.359Z,82.50
2022-10-24T15:11:22.144Z,85.50
2022-10-24T15:14:06.421Z,86.20
2022-10-24T15:16:39.240Z,86.50
2022-10-24T15:19:17.966Z,87.00
2022-10-24T15:21:48.893Z,87.20
2022-10-24T15:24:24.969Z,87.40
2022-10-24T15:26:54.704Z,87.50
2022-10-24T15:29:26.688Z,87.60
2022-10-24T15:31:55.997Z,87.40
2022-10-24T15:34:27.429Z,87.20
2022-10-24T15:36:57.764Z,87.30
2022-10-24T15:39:28.446Z,87.30
2022-10-24T15:41:58.876Z,87.30
2022-10-24T15:44:32.756Z,87.40
2022-10-24T15:47:02.426Z,87.40
2022-10-24T15:49:31.705Z,87.20
2022-10-24T15:52:01.257Z,87.20
2022-10-24T15:54:32.116Z,87.30
2022-10-24T15:57:05.021Z,87.20
2022-10-24T15:59:34.768Z,87.20
2022-10-24T16:02:04.604Z,87.20
2022-10-24T16:04:35.024Z,87.20
2022-10-24T16:07:04.591Z,87.30
2022-10-24T16:09:35.267Z,87.30
2022-10-24T16:12:04.559Z,87.40
2022-10-24T16:14:33.915Z,87.70
2022-10-24T16:17:03.128Z,87.60
2022-10-24T16:19:32.339Z,87.20
2022-10-24T16:22:01.718Z,87.10
2022-10-24T16:24:31.231Z,86.80
2022-10-24T16:27:01.848Z,86.70
2022-10-24T16:29:31.149Z,86.70
2022-10-24T16:32:00.508Z,86.60
2022-10-24T16:34:29.761Z,86.80
2022-10-24T16:36:58.894Z,86.90
2022-10-24T16:39:28.076Z,87.00
2022-10-24T16:41:58.562Z,87.10
2022-10-24T16:44:29.245Z,87.40
2022-10-24T16:46:58.467Z,87.00
2022-10-24T16:49:27.731Z,87.10
2022-10-24T16:51:57.385Z,86.60
2022-10-24T16:54:26.683Z,86.70
2022-10-24T16:56:56.235Z,86.80
2022-10-24T16:59:26.487Z,86.70
2022-10-24T17:01:57.523Z,86.60
2022-10-24T17:04:30.243Z,86.60
2022-10-24T17:07:04.603Z,86.60
2022-10-24T17:09:34.087Z,86.70
2022-10-24T17:12:03.698Z,87.00
2022-10-24T17:14:35.048Z,87.20
2022-10-24T17:17:06.022Z,87.80
2022-10-24T17:19:36.514Z,87.70
2022-10-24T17:22:05.993Z,88.20
2022-10-24T17:24:35.413Z,88.30
2022-10-24T17:27:04.805Z,88.80
2022-10-24T17:29:35.104Z,89.50
2022-10-24T17:32:07.017Z,89.30
2022-10-24T17:34:36.999Z,89.10
2022-10-24T17:37:09.512Z,88.70
2022-10-24T17:39:46.322Z,89.50
2022-10-24T17:42:15.972Z,89.90
2022-10-24T17:44:46.140Z,89.70
2022-10-24T17:47:17.489Z,89.40
2022-10-24T17:49:47.309Z,89.30
2022-10-24T17:52:22.631Z,89.40
2022-10-24T17:54:52.405Z,89.10
2022-10-24T17:57:21.783Z,88.70
2022-10-24T17:59:51.042Z,88.70
2022-10-24T18:02:21.613Z,88.70
2022-10-24T18:04:53.013Z,88.70
2022-10-24T18:07:22.273Z,89.50
2022-10-24T18:09:58.374Z,89.30
2022-10-24T18:12:27.906Z,89.40
2022-10-24T18:14:57.637Z,89.50
2022-10-24T18:17:28.612Z,89.10
2022-10-24T18:19:57.908Z,89.00
2022-10-24T18:22:27.630Z,88.80
2022-10-24T18:24:57.026Z,88.60
2022-10-24T18:27:26.231Z,88.30
2022-10-24T18:29:55.712Z,88.20
2022-10-24T18:32:25.065Z,88.10
2022-10-24T18:34:55.971Z,88.10
2022-10-24T18:37:25.330Z,87.90
2022-10-24T18:39:55.001Z,87.80
2022-10-24T18:42:29.431Z,87.80
2022-10-24T18:44:59.400Z,87.60
2022-10-24T18:47:30.583Z,87.40
2022-10-24T18:50:01.860Z,87.30
2022-10-24T18:52:41.186Z,87.20
2022-10-24T18:55:19.115Z,87.10
2022-10-24T18:57:50.284Z,87.00
2022-10-24T19:00:21.662Z,86.90
2022-10-24T19:02:59.059Z,86.90
2022-10-24T19:05:44.153Z,86.70
2022-10-24T19:08:16.815Z,86.70
2022-10-24T19:10:47.236Z,86.60
2022-10-24T19:13:16.855Z,86.70
2022-10-24T19:15:50.469Z,86.80
2022-10-24T19:18:20.291Z,86.80
2022-10-24T19:20:51.209Z,86.70
2022-10-24T19:23:20.366Z,86.70
2022-10-24T19:25:49.554Z,87.80
2022-10-24T19:28:20.545Z,87.00
2022-10-24T19:30:50.603Z,87.00
2022-10-24T19:33:20.860Z,87.10
2022-10-24T19:35:51.426Z,86.80
2022-10-24T19:38:20.702Z,86.80
2022-10-24T19:40:52.111Z,86.60
2022-10-24T19:43:22.104Z,86.50
2022-10-24T19:46:07.539Z,86.50
2022-10-24T19:48:43.675Z,86.30
2022-10-24T19:51:15.051Z,86.40
2022-10-24T19:53:45.443Z,86.30
2022-10-24T19:56:20.087Z,86.10
2022-10-24T19:58:52.408Z,86.10
2022-10-24T20:01:25.791Z,86.10
2022-10-24T20:03:55.715Z,86.10
2022-10-24T20:06:26.705Z,86.00
2022-10-24T20:08:55.942Z,85.80
2022-10-24T20:11:27.037Z,85.80
2022-10-24T20:13:56.442Z,85.80
2022-10-24T20:16:25.529Z,85.60
2022-10-24T20:18:54.657Z,85.50
2022-10-24T20:21:25.169Z,85.40
2022-10-24T20:23:54.447Z,85.20
2022-10-24T20:26:25.363Z,85.20
2022-10-24T20:28:56.081Z,85.10
2022-10-24T20:31:28.153Z,85.00
2022-10-24T20:34:05.027Z,84.90
2022-10-24T20:36:39.537Z,84.80
2022-10-24T20:39:09.881Z,84.80
2022-10-24T20:41:39.704Z,84.80
2022-10-24T20:44:08.874Z,84.70
2022-10-24T20:46:38.174Z,84.50
2022-10-24T20:49:07.271Z,84.40
2022-10-24T20:51:36.476Z,84.40
2022-10-24T20:54:10.708Z,84.20
2022-10-24T20:56:42.644Z,84.20
2022-10-24T20:59:14.652Z,84.10
2022-10-24T21:01:43.933Z,84.00
2022-10-24T21:04:15.713Z,84.00
2022-10-24T21:06:47.692Z,83.90
2022-10-24T21:09:18.654Z,83.90
2022-10-24T21:11:48.775Z,83.80
2022-10-24T21:14:20.861Z,83.70
2022-10-24T21:16:49.995Z,83.70
2022-10-24T21:19:19.120Z,83.50
2022-10-24T21:21:48.945Z,83.60
2022-10-24T21:24:19.899Z,83.50
2022-10-24T21:26:49.046Z,83.40
2022-10-24T21:29:32.902Z,83.30
2022-10-24T21:32:03.055Z,83.30
2022-10-24T21:34:34.536Z,83.20
2022-10-24T21:37:05.200Z,83.10
2022-10-24T21:39:35.726Z,83.10
2022-10-24T21:42:05.596Z,83.00
2022-10-24T21:44:35.987Z,82.90
2022-10-24T21:47:05.169Z,83.00
2022-10-24T21:49:34.277Z,83.00
2022-10-24T21:52:03.368Z,82.90
2022-10-24T21:54:32.725Z,82.80
2022-10-24T21:57:03.236Z,82.80
2022-10-24T21:59:32.408Z,82.80
2022-10-24T22:02:01.649Z,82.70
2022-10-24T22:04:30.914Z,82.70
2022-10-24T22:07:00.076Z,82.60
2022-10-24T22:09:29.332Z,82.60
2022-10-24T22:11:58.896Z,82.60
2022-10-24T22:14:29.615Z,82.60
2022-10-24T22:16:58.886Z,82.40
2022-10-24T22:19:28.100Z,82.40
2022-10-24T22:21:57.234Z,82.40
2022-10-24T22:24:27.703Z,82.40
2022-10-24T22:26:56.866Z,82.40
2022-10-24T22:29:26.177Z,82.40
2022-10-24T22:31:57.516Z,82.30
2022-10-24T22:34:28.543Z,82.30
2022-10-24T22:37:09.046Z,82.20
2022-10-24T22:39:38.845Z,82.20
2022-10-24T22:42:12.437Z,82.20
2022-10-24T22:44:44.713Z,82.20
2022-10-24T22:47:33.718Z,82.20
2022-10-24T22:50:13.626Z,82.10
2022-10-24T22:52:43.716Z,82.10
2022-10-24T22:55:20.935Z,82.20
2022-10-24T22:57:50.690Z,82.10
2022-10-24T23:00:21.324Z,82.10
2022-10-24T23:02:55.185Z,82.10
2022-10-24T23:05:35.476Z,82.10
2022-10-24T23:08:07.055Z,82.30
2022-10-24T23:10:36.612Z,82.20
2022-10-24T23:13:06.332Z,82.10
2022-10-24T23:15:35.958Z,82.00
2022-10-24T23:18:07.184Z,82.00
2022-10-24T23:20:40.687Z,82.00
2022-10-24T23:23:28.305Z,82.00
2022-10-24T23:26:09.269Z,82.00
2022-10-24T23:28:44.908Z,81.90
2022-10-24T23:31:14.502Z,81.90
2022-10-24T23:33:45.725Z,81.90
2022-10-24T23:36:25.221Z,81.80
2022-10-24T23:38:57.680Z,81.70
2022-10-24T23:41:27.353Z,81.80
2022-10-24T23:43:57.248Z,81.90
2022-10-24T23:46:28.857Z,81.80
2022-10-24T23:49:28.517Z,81.70
2022-10-24T23:52:05.177Z,81.70
2022-10-24T23:54:35.319Z,81.70
2022-10-24T23:57:15.022Z,81.70
2022-10-24T23:59:44.408Z,81.60
